サンクトペテルブルク の空港の天気 - METARとTAF

プルコヴォ空港(サンクトペテルブルグ) ( ULLI / LED ) - ロシア サンクトペテルブルク
飛行場実況気象(Metar)
観測時間06/24 12:30 MSK (06/24 09:30 UTC)
風向・風速西北西 5m/s
視程10km以上
天気現象
全天の4割程度の雲 雲底高度 1400m
気温21℃
湿度43%
気圧1024hPa
METARULLI 240930Z 30005MPS 270V340 9999 SCT046CB 21/08 Q1024 R88/090060 NOSIG
過去の天気等 Google飛行場航空写真 Wunderground天気予報

過去48時間のMETAR

飛行場予報(TAF)
発表時間: 6/24 10:58 MSK (6/24 07:58 UTC)
予報対象時間: 24日12時 MSK ~ 25日12時 MSK
風向・風速西 4m/s 瞬間風速 9m/s
視程10km以上
全天の8割程度の雲 雲底高度 760m
24日12時 MSK ~ 24日21時 MSK に一時的に
風向・風速西北西 6m/s 瞬間風速 12m/s
視程4000m
天気現象弱いしゅう雨
全天の8割程度の雲 雲底高度 370m
全天の8割程度の積乱雲 雲底高度 760m
24日21時 MSK ~ 24日22時 MSK に徐々に
風向・風速西北西 3m/s
TAF ULLI 240758Z 2409/2509 28004G09MPS 9999 BKN025
TEMPO 2409/2418 29006G12MPS 4000 -SHRA BKN012 BKN025CB
BECMG 2418/2419 29003MPS